sensor_id;sensor_type;location;lat;lon;timestamp;P1;durP1;ratioP1;P2;durP2;ratioP2
35376;SDS011;21480;51.642;4.834;2022-07-09T00:00:39;129.23;;;118.63;;
35376;SDS011;21480;51.642;4.834;2022-07-09T00:03:05;128.53;;;118.73;;
35376;SDS011;21480;51.642;4.834;2022-07-09T00:05:30;126.90;;;117.00;;
35376;SDS011;21480;51.642;4.834;2022-07-09T00:07:56;129.80;;;119.63;;
35376;SDS011;21480;51.642;4.834;2022-07-09T00:10:22;125.17;;;115.77;;
35376;SDS011;21480;51.642;4.834;2022-07-09T00:12:47;126.87;;;117.17;;
35376;SDS011;21480;51.642;4.834;2022-07-09T00:15:13;126.07;;;116.20;;
35376;SDS011;21480;51.642;4.834;2022-07-09T00:17:39;127.77;;;117.87;;
35376;SDS011;21480;51.642;4.834;2022-07-09T00:20:05;129.13;;;119.17;;
35376;SDS011;21480;51.642;4.834;2022-07-09T00:22:31;128.23;;;118.07;;
35376;SDS011;21480;51.642;4.834;2022-07-09T00:24:58;127.43;;;117.60;;
35376;SDS011;21480;51.642;4.834;2022-07-09T00:27:25;130.33;;;120.10;;
35376;SDS011;21480;51.642;4.834;2022-07-09T00:29:51;130.93;;;120.47;;
35376;SDS011;21480;51.642;4.834;2022-07-09T00:32:16;129.50;;;119.43;;
35376;SDS011;21480;51.642;4.834;2022-07-09T00:34:43;130.47;;;119.93;;
35376;SDS011;21480;51.642;4.834;2022-07-09T00:37:09;128.30;;;118.10;;
35376;SDS011;21480;51.642;4.834;2022-07-09T00:39:35;129.90;;;119.50;;
35376;SDS011;21480;51.642;4.834;2022-07-09T00:42:01;129.33;;;118.93;;
35376;SDS011;21480;51.642;4.834;2022-07-09T00:44:28;129.63;;;119.27;;
35376;SDS011;21480;51.642;4.834;2022-07-09T00:46:54;129.80;;;119.53;;
35376;SDS011;21480;51.642;4.834;2022-07-09T00:49:19;131.83;;;121.43;;
35376;SDS011;21480;51.642;4.834;2022-07-09T00:51:45;130.93;;;120.47;;
35376;SDS011;21480;51.642;4.834;2022-07-09T00:54:12;131.57;;;121.27;;
35376;SDS011;21480;51.642;4.834;2022-07-09T00:56:38;131.20;;;120.73;;
35376;SDS011;21480;51.642;4.834;2022-07-09T00:59:04;130.50;;;120.07;;
35376;SDS011;21480;51.642;4.834;2022-07-09T01:01:35;131.70;;;121.17;;
35376;SDS011;21480;51.642;4.834;2022-07-09T01:04:01;131.53;;;121.10;;
35376;SDS011;21480;51.642;4.834;2022-07-09T01:06:27;132.27;;;121.27;;
35376;SDS011;21480;51.642;4.834;2022-07-09T01:08:55;134.10;;;123.17;;
35376;SDS011;21480;51.642;4.834;2022-07-09T01:11:20;134.90;;;123.17;;
35376;SDS011;21480;51.642;4.834;2022-07-09T01:13:46;131.63;;;120.60;;
35376;SDS011;21480;51.642;4.834;2022-07-09T01:16:13;132.27;;;121.70;;
35376;SDS011;21480;51.642;4.834;2022-07-09T01:18:39;132.40;;;121.80;;
35376;SDS011;21480;51.642;4.834;2022-07-09T01:21:08;133.90;;;123.13;;
35376;SDS011;21480;51.642;4.834;2022-07-09T01:23:33;130.87;;;120.57;;
35376;SDS011;21480;51.642;4.834;2022-07-09T01:26:02;132.47;;;121.80;;
35376;SDS011;21480;51.642;4.834;2022-07-09T01:28:28;133.80;;;123.20;;
35376;SDS011;21480;51.642;4.834;2022-07-09T01:30:54;132.07;;;121.37;;
35376;SDS011;21480;51.642;4.834;2022-07-09T01:33:20;131.60;;;120.63;;
35376;SDS011;21480;51.642;4.834;2022-07-09T01:35:45;130.97;;;120.37;;
35376;SDS011;21480;51.642;4.834;2022-07-09T01:38:11;131.20;;;120.90;;
35376;SDS011;21480;51.642;4.834;2022-07-09T01:40:37;131.67;;;120.83;;
35376;SDS011;21480;51.642;4.834;2022-07-09T01:43:02;131.20;;;120.80;;
35376;SDS011;21480;51.642;4.834;2022-07-09T01:45:28;131.60;;;121.07;;
35376;SDS011;21480;51.642;4.834;2022-07-09T01:47:54;134.10;;;123.17;;
35376;SDS011;21480;51.642;4.834;2022-07-09T01:50:19;134.67;;;123.73;;
35376;SDS011;21480;51.642;4.834;2022-07-09T01:52:45;134.37;;;123.17;;
35376;SDS011;21480;51.642;4.834;2022-07-09T01:55:11;134.60;;;123.17;;
35376;SDS011;21480;51.642;4.834;2022-07-09T01:57:36;134.20;;;123.00;;
35376;SDS011;21480;51.642;4.834;2022-07-09T02:00:08;133.20;;;122.53;;
35376;SDS011;21480;51.642;4.834;2022-07-09T02:02:35;131.53;;;120.93;;
35376;SDS011;21480;51.642;4.834;2022-07-09T02:05:00;132.63;;;121.90;;
35376;SDS011;21480;51.642;4.834;2022-07-09T02:07:26;136.23;;;124.43;;
35376;SDS011;21480;51.642;4.834;2022-07-09T02:09:52;134.80;;;123.43;;
35376;SDS011;21480;51.642;4.834;2022-07-09T02:12:18;138.87;;;127.17;;
35376;SDS011;21480;51.642;4.834;2022-07-09T02:14:43;137.47;;;125.73;;
35376;SDS011;21480;51.642;4.834;2022-07-09T02:17:09;139.57;;;127.23;;
35376;SDS011;21480;51.642;4.834;2022-07-09T02:19:35;137.43;;;125.40;;
35376;SDS011;21480;51.642;4.834;2022-07-09T02:22:01;138.70;;;126.27;;
35376;SDS011;21480;51.642;4.834;2022-07-09T02:24:27;141.23;;;128.73;;
35376;SDS011;21480;51.642;4.834;2022-07-09T02:26:53;138.13;;;126.53;;
35376;SDS011;21480;51.642;4.834;2022-07-09T02:29:19;141.10;;;128.57;;
35376;SDS011;21480;51.642;4.834;2022-07-09T02:31:45;140.47;;;127.93;;
35376;SDS011;21480;51.642;4.834;2022-07-09T02:34:10;144.90;;;131.90;;
35376;SDS011;21480;51.642;4.834;2022-07-09T02:36:36;140.30;;;128.23;;
35376;SDS011;21480;51.642;4.834;2022-07-09T02:39:02;138.83;;;127.03;;
35376;SDS011;21480;51.642;4.834;2022-07-09T02:41:27;138.17;;;125.97;;
35376;SDS011;21480;51.642;4.834;2022-07-09T02:43:53;137.00;;;125.50;;
35376;SDS011;21480;51.642;4.834;2022-07-09T02:46:19;139.50;;;127.37;;
35376;SDS011;21480;51.642;4.834;2022-07-09T02:48:44;136.37;;;124.77;;
35376;SDS011;21480;51.642;4.834;2022-07-09T02:51:10;133.90;;;122.90;;
35376;SDS011;21480;51.642;4.834;2022-07-09T02:53:36;134.33;;;123.17;;
35376;SDS011;21480;51.642;4.834;2022-07-09T02:56:01;138.37;;;126.47;;
35376;SDS011;21480;51.642;4.834;2022-07-09T02:58:27;137.77;;;126.37;;
35376;SDS011;21480;51.642;4.834;2022-07-09T03:00:53;134.63;;;123.73;;
35376;SDS011;21480;51.642;4.834;2022-07-09T03:03:18;135.47;;;124.47;;
35376;SDS011;21480;51.642;4.834;2022-07-09T03:05:44;137.10;;;125.53;;
35376;SDS011;21480;51.642;4.834;2022-07-09T03:08:10;139.27;;;126.77;;
35376;SDS011;21480;51.642;4.834;2022-07-09T03:10:36;139.93;;;127.70;;
35376;SDS011;21480;51.642;4.834;2022-07-09T03:13:02;137.43;;;126.03;;
35376;SDS011;21480;51.642;4.834;2022-07-09T03:15:28;136.30;;;124.90;;
35376;SDS011;21480;51.642;4.834;2022-07-09T03:17:53;137.93;;;125.63;;
35376;SDS011;21480;51.642;4.834;2022-07-09T03:20:19;138.90;;;126.83;;
35376;SDS011;21480;51.642;4.834;2022-07-09T03:22:45;139.37;;;127.23;;
35376;SDS011;21480;51.642;4.834;2022-07-09T03:25:10;139.43;;;127.23;;
35376;SDS011;21480;51.642;4.834;2022-07-09T03:27:39;138.80;;;126.97;;
35376;SDS011;21480;51.642;4.834;2022-07-09T03:30:04;138.70;;;126.80;;
35376;SDS011;21480;51.642;4.834;2022-07-09T03:32:31;136.63;;;124.93;;
35376;SDS011;21480;51.642;4.834;2022-07-09T03:34:56;136.13;;;124.77;;
35376;SDS011;21480;51.642;4.834;2022-07-09T03:37:22;139.30;;;127.57;;
35376;SDS011;21480;51.642;4.834;2022-07-09T03:39:48;135.23;;;124.10;;
35376;SDS011;21480;51.642;4.834;2022-07-09T03:42:17;133.80;;;122.90;;
35376;SDS011;21480;51.642;4.834;2022-07-09T03:44:43;141.43;;;129.03;;
35376;SDS011;21480;51.642;4.834;2022-07-09T03:47:08;141.87;;;129.47;;
35376;SDS011;21480;51.642;4.834;2022-07-09T03:49:34;145.70;;;132.57;;
35376;SDS011;21480;51.642;4.834;2022-07-09T03:51:59;140.70;;;128.53;;
35376;SDS011;21480;51.642;4.834;2022-07-09T03:54:25;142.03;;;129.53;;
35376;SDS011;21480;51.642;4.834;2022-07-09T03:56:51;139.67;;;127.37;;
35376;SDS011;21480;51.642;4.834;2022-07-09T03:59:17;141.70;;;129.40;;
35376;SDS011;21480;51.642;4.834;2022-07-09T04:01:44;138.30;;;126.77;;
35376;SDS011;21480;51.642;4.834;2022-07-09T04:04:09;138.60;;;127.00;;
35376;SDS011;21480;51.642;4.834;2022-07-09T04:06:35;139.80;;;127.60;;
35376;SDS011;21480;51.642;4.834;2022-07-09T04:09:01;138.17;;;126.43;;
35376;SDS011;21480;51.642;4.834;2022-07-09T04:11:32;140.00;;;127.80;;
35376;SDS011;21480;51.642;4.834;2022-07-09T04:13:58;139.27;;;127.53;;
35376;SDS011;21480;51.642;4.834;2022-07-09T04:16:27;139.83;;;128.03;;
35376;SDS011;21480;51.642;4.834;2022-07-09T04:18:54;136.60;;;125.27;;
35376;SDS011;21480;51.642;4.834;2022-07-09T04:21:20;138.43;;;126.87;;
35376;SDS011;21480;51.642;4.834;2022-07-09T04:23:49;136.90;;;125.70;;
35376;SDS011;21480;51.642;4.834;2022-07-09T04:26:15;135.37;;;124.23;;
35376;SDS011;21480;51.642;4.834;2022-07-09T04:28:43;136.53;;;124.90;;
35376;SDS011;21480;51.642;4.834;2022-07-09T04:31:09;136.20;;;124.90;;
35376;SDS011;21480;51.642;4.834;2022-07-09T04:33:35;135.33;;;124.40;;
35376;SDS011;21480;51.642;4.834;2022-07-09T04:36:01;133.17;;;122.37;;
35376;SDS011;21480;51.642;4.834;2022-07-09T04:38:27;136.60;;;125.53;;
35376;SDS011;21480;51.642;4.834;2022-07-09T04:40:53;137.53;;;126.27;;
35376;SDS011;21480;51.642;4.834;2022-07-09T04:43:20;139.23;;;127.43;;
35376;SDS011;21480;51.642;4.834;2022-07-09T04:45:46;139.30;;;127.43;;
35376;SDS011;21480;51.642;4.834;2022-07-09T04:48:11;139.80;;;127.97;;
35376;SDS011;21480;51.642;4.834;2022-07-09T04:50:37;137.07;;;125.73;;
35376;SDS011;21480;51.642;4.834;2022-07-09T04:53:03;139.73;;;127.57;;
35376;SDS011;21480;51.642;4.834;2022-07-09T04:55:29;140.73;;;128.77;;
35376;SDS011;21480;51.642;4.834;2022-07-09T04:57:55;140.03;;;127.83;;
35376;SDS011;21480;51.642;4.834;2022-07-09T05:00:24;140.63;;;128.40;;
35376;SDS011;21480;51.642;4.834;2022-07-09T05:02:49;144.57;;;131.77;;
35376;SDS011;21480;51.642;4.834;2022-07-09T05:05:15;144.83;;;132.00;;
35376;SDS011;21480;51.642;4.834;2022-07-09T05:07:41;141.17;;;129.37;;
35376;SDS011;21480;51.642;4.834;2022-07-09T05:10:07;142.40;;;129.73;;
35376;SDS011;21480;51.642;4.834;2022-07-09T05:12:34;142.50;;;130.60;;
35376;SDS011;21480;51.642;4.834;2022-07-09T05:14:59;141.17;;;128.90;;
35376;SDS011;21480;51.642;4.834;2022-07-09T05:17:25;140.80;;;128.50;;
35376;SDS011;21480;51.642;4.834;2022-07-09T05:19:51;143.97;;;131.33;;
35376;SDS011;21480;51.642;4.834;2022-07-09T05:22:26;141.80;;;129.93;;
35376;SDS011;21480;51.642;4.834;2022-07-09T05:24:52;140.67;;;128.90;;
35376;SDS011;21480;51.642;4.834;2022-07-09T05:27:17;140.17;;;128.63;;
35376;SDS011;21480;51.642;4.834;2022-07-09T05:29:43;141.13;;;128.73;;
35376;SDS011;21480;51.642;4.834;2022-07-09T05:32:09;142.53;;;130.60;;
35376;SDS011;21480;51.642;4.834;2022-07-09T05:34:35;143.33;;;131.37;;
35376;SDS011;21480;51.642;4.834;2022-07-09T05:37:01;141.57;;;129.47;;
35376;SDS011;21480;51.642;4.834;2022-07-09T05:39:27;138.57;;;127.27;;
35376;SDS011;21480;51.642;4.834;2022-07-09T05:41:53;140.07;;;128.40;;
35376;SDS011;21480;51.642;4.834;2022-07-09T05:44:18;140.10;;;128.27;;
35376;SDS011;21480;51.642;4.834;2022-07-09T05:46:44;140.43;;;128.67;;
35376;SDS011;21480;51.642;4.834;2022-07-09T05:49:10;138.27;;;127.03;;
35376;SDS011;21480;51.642;4.834;2022-07-09T05:51:35;140.83;;;129.40;;
35376;SDS011;21480;51.642;4.834;2022-07-09T05:54:01;135.10;;;124.33;;
35376;SDS011;21480;51.642;4.834;2022-07-09T05:56:27;139.60;;;127.97;;
35376;SDS011;21480;51.642;4.834;2022-07-09T05:58:53;138.80;;;127.23;;
35376;SDS011;21480;51.642;4.834;2022-07-09T06:01:18;135.47;;;124.57;;
35376;SDS011;21480;51.642;4.834;2022-07-09T06:03:44;134.87;;;124.30;;
35376;SDS011;21480;51.642;4.834;2022-07-09T06:06:12;133.33;;;122.67;;
35376;SDS011;21480;51.642;4.834;2022-07-09T06:08:37;137.97;;;126.80;;
35376;SDS011;21480;51.642;4.834;2022-07-09T06:11:03;135.77;;;124.63;;
35376;SDS011;21480;51.642;4.834;2022-07-09T06:13:29;136.27;;;125.30;;
35376;SDS011;21480;51.642;4.834;2022-07-09T06:15:54;136.83;;;125.93;;
35376;SDS011;21480;51.642;4.834;2022-07-09T06:18:20;134.83;;;124.03;;
35376;SDS011;21480;51.642;4.834;2022-07-09T06:20:47;136.13;;;125.43;;
35376;SDS011;21480;51.642;4.834;2022-07-09T06:23:12;137.57;;;126.90;;
35376;SDS011;21480;51.642;4.834;2022-07-09T06:25:39;135.03;;;124.33;;
35376;SDS011;21480;51.642;4.834;2022-07-09T06:28:05;138.93;;;127.27;;
35376;SDS011;21480;51.642;4.834;2022-07-09T06:30:31;137.97;;;127.03;;
35376;SDS011;21480;51.642;4.834;2022-07-09T06:32:59;137.90;;;126.97;;
35376;SDS011;21480;51.642;4.834;2022-07-09T06:35:25;135.27;;;124.73;;
35376;SDS011;21480;51.642;4.834;2022-07-09T06:37:50;135.10;;;124.20;;
35376;SDS011;21480;51.642;4.834;2022-07-09T06:40:16;137.77;;;126.87;;
35376;SDS011;21480;51.642;4.834;2022-07-09T06:42:42;138.30;;;127.30;;
35376;SDS011;21480;51.642;4.834;2022-07-09T06:45:08;138.33;;;127.43;;
35376;SDS011;21480;51.642;4.834;2022-07-09T06:47:34;136.00;;;125.27;;
35376;SDS011;21480;51.642;4.834;2022-07-09T06:50:01;139.90;;;129.07;;
35376;SDS011;21480;51.642;4.834;2022-07-09T06:52:26;134.97;;;124.30;;
35376;SDS011;21480;51.642;4.834;2022-07-09T06:54:52;135.70;;;125.07;;
35376;SDS011;21480;51.642;4.834;2022-07-09T06:57:18;135.40;;;124.53;;
35376;SDS011;21480;51.642;4.834;2022-07-09T06:59:44;134.17;;;123.57;;
35376;SDS011;21480;51.642;4.834;2022-07-09T07:02:11;136.10;;;125.60;;
35376;SDS011;21480;51.642;4.834;2022-07-09T07:04:43;134.73;;;124.33;;
35376;SDS011;21480;51.642;4.834;2022-07-09T07:07:08;136.47;;;125.80;;
35376;SDS011;21480;51.642;4.834;2022-07-09T07:09:34;133.70;;;123.03;;
35376;SDS011;21480;51.642;4.834;2022-07-09T07:12:00;135.33;;;124.70;;
35376;SDS011;21480;51.642;4.834;2022-07-09T07:14:26;134.43;;;124.13;;
35376;SDS011;21480;51.642;4.834;2022-07-09T07:16:52;136.33;;;125.97;;
35376;SDS011;21480;51.642;4.834;2022-07-09T07:19:18;133.80;;;123.50;;
35376;SDS011;21480;51.642;4.834;2022-07-09T07:21:48;131.57;;;121.70;;
35376;SDS011;21480;51.642;4.834;2022-07-09T07:24:14;128.67;;;118.97;;
35376;SDS011;21480;51.642;4.834;2022-07-09T07:26:39;133.53;;;123.37;;
35376;SDS011;21480;51.642;4.834;2022-07-09T07:29:05;134.17;;;123.73;;
35376;SDS011;21480;51.642;4.834;2022-07-09T07:31:31;132.70;;;121.93;;
35376;SDS011;21480;51.642;4.834;2022-07-09T07:33:57;128.77;;;119.17;;
35376;SDS011;21480;51.642;4.834;2022-07-09T07:36:24;126.63;;;117.40;;
35376;SDS011;21480;51.642;4.834;2022-07-09T07:38:50;128.63;;;119.20;;
35376;SDS011;21480;51.642;4.834;2022-07-09T07:41:16;127.43;;;118.33;;
35376;SDS011;21480;51.642;4.834;2022-07-09T07:43:43;127.83;;;118.33;;
35376;SDS011;21480;51.642;4.834;2022-07-09T07:46:09;125.93;;;116.70;;
35376;SDS011;21480;51.642;4.834;2022-07-09T07:48:34;127.93;;;118.43;;
35376;SDS011;21480;51.642;4.834;2022-07-09T07:51:06;125.80;;;116.47;;
35376;SDS011;21480;51.642;4.834;2022-07-09T07:53:32;127.10;;;117.90;;
35376;SDS011;21480;51.642;4.834;2022-07-09T07:56:02;126.10;;;116.63;;
35376;SDS011;21480;51.642;4.834;2022-07-09T07:58:28;129.50;;;120.03;;
35376;SDS011;21480;51.642;4.834;2022-07-09T08:00:54;129.17;;;119.77;;
35376;SDS011;21480;51.642;4.834;2022-07-09T08:03:20;127.57;;;118.30;;
35376;SDS011;21480;51.642;4.834;2022-07-09T08:05:46;127.00;;;117.70;;
35376;SDS011;21480;51.642;4.834;2022-07-09T08:08:12;127.27;;;117.77;;
35376;SDS011;21480;51.642;4.834;2022-07-09T08:10:43;129.73;;;120.10;;
35376;SDS011;21480;51.642;4.834;2022-07-09T08:13:10;126.77;;;117.37;;
35376;SDS011;21480;51.642;4.834;2022-07-09T08:15:37;126.40;;;117.27;;
35376;SDS011;21480;51.642;4.834;2022-07-09T08:18:06;125.53;;;116.30;;
35376;SDS011;21480;51.642;4.834;2022-07-09T08:20:34;127.63;;;118.40;;
35376;SDS011;21480;51.642;4.834;2022-07-09T08:23:01;127.43;;;118.17;;
35376;SDS011;21480;51.642;4.834;2022-07-09T08:25:28;127.30;;;117.33;;
35376;SDS011;21480;51.642;4.834;2022-07-09T08:27:56;127.10;;;118.00;;
35376;SDS011;21480;51.642;4.834;2022-07-09T08:30:21;126.40;;;117.33;;
35376;SDS011;21480;51.642;4.834;2022-07-09T08:32:47;126.60;;;117.13;;
35376;SDS011;21480;51.642;4.834;2022-07-09T08:35:13;124.47;;;115.50;;
35376;SDS011;21480;51.642;4.834;2022-07-09T08:37:38;125.00;;;115.83;;
35376;SDS011;21480;51.642;4.834;2022-07-09T08:40:05;125.30;;;116.47;;
35376;SDS011;21480;51.642;4.834;2022-07-09T08:42:31;123.73;;;114.93;;
35376;SDS011;21480;51.642;4.834;2022-07-09T08:44:57;124.93;;;116.13;;
35376;SDS011;21480;51.642;4.834;2022-07-09T08:47:23;123.20;;;114.33;;
35376;SDS011;21480;51.642;4.834;2022-07-09T08:49:50;124.27;;;115.60;;
35376;SDS011;21480;51.642;4.834;2022-07-09T08:52:21;121.13;;;112.83;;
35376;SDS011;21480;51.642;4.834;2022-07-09T08:54:48;124.10;;;115.23;;
35376;SDS011;21480;51.642;4.834;2022-07-09T08:57:17;121.83;;;113.30;;
35376;SDS011;21480;51.642;4.834;2022-07-09T08:59:43;121.53;;;113.00;;
35376;SDS011;21480;51.642;4.834;2022-07-09T09:02:09;121.10;;;112.73;;
35376;SDS011;21480;51.642;4.834;2022-07-09T09:04:35;122.30;;;113.70;;
35376;SDS011;21480;51.642;4.834;2022-07-09T09:07:18;120.93;;;112.40;;
35376;SDS011;21480;51.642;4.834;2022-07-09T09:09:47;120.90;;;112.60;;
35376;SDS011;21480;51.642;4.834;2022-07-09T09:12:13;120.67;;;112.40;;
35376;SDS011;21480;51.642;4.834;2022-07-09T09:14:39;118.50;;;110.50;;
35376;SDS011;21480;51.642;4.834;2022-07-09T09:17:15;120.63;;;112.33;;
35376;SDS011;21480;51.642;4.834;2022-07-09T09:19:40;120.23;;;111.90;;
35376;SDS011;21480;51.642;4.834;2022-07-09T09:22:06;120.57;;;112.40;;
35376;SDS011;21480;51.642;4.834;2022-07-09T09:24:34;120.30;;;111.93;;
35376;SDS011;21480;51.642;4.834;2022-07-09T09:26:59;119.20;;;111.27;;
35376;SDS011;21480;51.642;4.834;2022-07-09T09:29:26;119.67;;;111.60;;
35376;SDS011;21480;51.642;4.834;2022-07-09T09:31:53;119.63;;;111.57;;
35376;SDS011;21480;51.642;4.834;2022-07-09T09:34:19;118.40;;;110.30;;
35376;SDS011;21480;51.642;4.834;2022-07-09T09:36:52;119.17;;;111.17;;
35376;SDS011;21480;51.642;4.834;2022-07-09T09:39:24;118.40;;;110.43;;
35376;SDS011;21480;51.642;4.834;2022-07-09T09:41:51;119.60;;;111.53;;
35376;SDS011;21480;51.642;4.834;2022-07-09T09:47:06;120.00;;;111.97;;
35376;SDS011;21480;51.642;4.834;2022-07-09T09:49:32;117.43;;;109.53;;
35376;SDS011;21480;51.642;4.834;2022-07-09T09:52:03;119.73;;;111.63;;
35376;SDS011;21480;51.642;4.834;2022-07-09T09:54:40;117.73;;;109.83;;
35376;SDS011;21480;51.642;4.834;2022-07-09T09:57:10;119.80;;;111.40;;
35376;SDS011;21480;51.642;4.834;2022-07-09T09:59:38;119.17;;;111.03;;
35376;SDS011;21480;51.642;4.834;2022-07-09T10:02:06;119.10;;;110.90;;
35376;SDS011;21480;51.642;4.834;2022-07-09T10:04:37;120.20;;;112.00;;
35376;SDS011;21480;51.642;4.834;2022-07-09T10:07:04;119.30;;;111.03;;
35376;SDS011;21480;51.642;4.834;2022-07-09T10:09:31;118.13;;;110.13;;
35376;SDS011;21480;51.642;4.834;2022-07-09T10:11:57;119.03;;;111.03;;
35376;SDS011;21480;51.642;4.834;2022-07-09T10:16:52;118.37;;;110.37;;
35376;SDS011;21480;51.642;4.834;2022-07-09T10:19:23;118.30;;;110.40;;
35376;SDS011;21480;51.642;4.834;2022-07-09T10:21:54;117.63;;;109.83;;
35376;SDS011;21480;51.642;4.834;2022-07-09T10:24:33;118.03;;;110.03;;
35376;SDS011;21480;51.642;4.834;2022-07-09T10:29:35;118.67;;;110.63;;
35376;SDS011;21480;51.642;4.834;2022-07-09T10:32:20;117.50;;;109.70;;
35376;SDS011;21480;51.642;4.834;2022-07-09T10:35:00;120.70;;;112.60;;
35376;SDS011;21480;51.642;4.834;2022-07-09T10:40:15;118.47;;;110.37;;
35376;SDS011;21480;51.642;4.834;2022-07-09T10:42:56;117.13;;;109.33;;
35376;SDS011;21480;51.642;4.834;2022-07-09T10:47:50;117.73;;;109.83;;
35376;SDS011;21480;51.642;4.834;2022-07-09T10:50:21;118.07;;;110.27;;
35376;SDS011;21480;51.642;4.834;2022-07-09T10:52:48;120.03;;;112.13;;
35376;SDS011;21480;51.642;4.834;2022-07-09T10:55:15;118.03;;;110.23;;
35376;SDS011;21480;51.642;4.834;2022-07-09T10:57:44;119.10;;;111.13;;
35376;SDS011;21480;51.642;4.834;2022-07-09T11:00:14;117.77;;;109.90;;
35376;SDS011;21480;51.642;4.834;2022-07-09T11:05:48;118.00;;;110.20;;
35376;SDS011;21480;51.642;4.834;2022-07-09T11:08:14;117.50;;;109.60;;
35376;SDS011;21480;51.642;4.834;2022-07-09T11:10:41;117.50;;;109.73;;
35376;SDS011;21480;51.642;4.834;2022-07-09T11:13:07;119.10;;;111.13;;
35376;SDS011;21480;51.642;4.834;2022-07-09T11:15:34;117.60;;;109.73;;
35376;SDS011;21480;51.642;4.834;2022-07-09T11:18:02;118.50;;;110.63;;
35376;SDS011;21480;51.642;4.834;2022-07-09T11:20:30;116.90;;;109.20;;
35376;SDS011;21480;51.642;4.834;2022-07-09T11:22:57;117.77;;;110.07;;
35376;SDS011;21480;51.642;4.834;2022-07-09T11:25:25;119.17;;;111.10;;
35376;SDS011;21480;51.642;4.834;2022-07-09T11:27:53;117.37;;;109.57;;
35376;SDS011;21480;51.642;4.834;2022-07-09T11:30:22;118.33;;;110.53;;
35376;SDS011;21480;51.642;4.834;2022-07-09T11:32:49;118.30;;;110.57;;
35376;SDS011;21480;51.642;4.834;2022-07-09T11:35:31;118.87;;;111.00;;
35376;SDS011;21480;51.642;4.834;2022-07-09T11:38:02;117.27;;;109.53;;
35376;SDS011;21480;51.642;4.834;2022-07-09T11:40:29;117.60;;;109.80;;
35376;SDS011;21480;51.642;4.834;2022-07-09T11:42:56;117.17;;;109.40;;
35376;SDS011;21480;51.642;4.834;2022-07-09T11:45:26;116.47;;;108.77;;
35376;SDS011;21480;51.642;4.834;2022-07-09T11:48:08;117.97;;;109.97;;
35376;SDS011;21480;51.642;4.834;2022-07-09T11:50:41;115.97;;;108.37;;
35376;SDS011;21480;51.642;4.834;2022-07-09T11:53:18;117.37;;;109.63;;
35376;SDS011;21480;51.642;4.834;2022-07-09T11:56:02;116.33;;;108.53;;
35376;SDS011;21480;51.642;4.834;2022-07-09T11:58:29;117.13;;;109.37;;
35376;SDS011;21480;51.642;4.834;2022-07-09T12:00:55;116.87;;;109.17;;
35376;SDS011;21480;51.642;4.834;2022-07-09T12:03:28;117.10;;;109.40;;
35376;SDS011;21480;51.642;4.834;2022-07-09T12:05:57;120.13;;;112.20;;
35376;SDS011;21480;51.642;4.834;2022-07-09T12:08:30;118.73;;;110.83;;
35376;SDS011;21480;51.642;4.834;2022-07-09T12:10:57;116.50;;;108.80;;
35376;SDS011;21480;51.642;4.834;2022-07-09T12:13:23;115.80;;;108.27;;
35376;SDS011;21480;51.642;4.834;2022-07-09T12:15:49;117.50;;;109.77;;
35376;SDS011;21480;51.642;4.834;2022-07-09T12:18:14;118.37;;;110.57;;
35376;SDS011;21480;51.642;4.834;2022-07-09T12:20:40;117.70;;;109.93;;
35376;SDS011;21480;51.642;4.834;2022-07-09T12:23:06;116.83;;;109.17;;
35376;SDS011;21480;51.642;4.834;2022-07-09T12:25:32;116.90;;;109.10;;
35376;SDS011;21480;51.642;4.834;2022-07-09T12:27:57;117.43;;;109.63;;
35376;SDS011;21480;51.642;4.834;2022-07-09T12:30:23;115.90;;;108.20;;
35376;SDS011;21480;51.642;4.834;2022-07-09T12:32:49;118.27;;;110.57;;
35376;SDS011;21480;51.642;4.834;2022-07-09T12:35:15;117.33;;;109.37;;
35376;SDS011;21480;51.642;4.834;2022-07-09T12:37:41;115.90;;;108.20;;
35376;SDS011;21480;51.642;4.834;2022-07-09T12:40:08;118.27;;;110.37;;
35376;SDS011;21480;51.642;4.834;2022-07-09T12:42:35;116.90;;;109.17;;
35376;SDS011;21480;51.642;4.834;2022-07-09T12:45:02;117.53;;;109.90;;
35376;SDS011;21480;51.642;4.834;2022-07-09T12:47:31;118.80;;;110.53;;
35376;SDS011;21480;51.642;4.834;2022-07-09T12:49:57;116.83;;;109.00;;
35376;SDS011;21480;51.642;4.834;2022-07-09T12:52:23;118.00;;;110.20;;
35376;SDS011;21480;51.642;4.834;2022-07-09T12:54:48;117.53;;;109.30;;
35376;SDS011;21480;51.642;4.834;2022-07-09T12:57:14;117.27;;;109.13;;
35376;SDS011;21480;51.642;4.834;2022-07-09T12:59:40;117.83;;;109.83;;
35376;SDS011;21480;51.642;4.834;2022-07-09T13:02:06;116.63;;;108.73;;
35376;SDS011;21480;51.642;4.834;2022-07-09T13:04:32;116.53;;;108.83;;
35376;SDS011;21480;51.642;4.834;2022-07-09T13:06:58;116.32;;;108.72;;
35376;SDS011;21480;51.642;4.834;2022-07-09T13:09:24;117.03;;;108.93;;
35376;SDS011;21480;51.642;4.834;2022-07-09T13:11:49;117.17;;;109.03;;
35376;SDS011;21480;51.642;4.834;2022-07-09T13:14:15;117.13;;;109.27;;
35376;SDS011;21480;51.642;4.834;2022-07-09T13:16:41;117.38;;;109.47;;
35376;SDS011;21480;51.642;4.834;2022-07-09T13:19:08;116.07;;;108.47;;
35376;SDS011;21480;51.642;4.834;2022-07-09T13:21:34;116.05;;;108.63;;
35376;SDS011;21480;51.642;4.834;2022-07-09T13:23:59;116.63;;;109.03;;
35376;SDS011;21480;51.642;4.834;2022-07-09T13:26:26;115.40;;;108.03;;
35376;SDS011;21480;51.642;4.834;2022-07-09T13:28:51;119.00;;;111.00;;
35376;SDS011;21480;51.642;4.834;2022-07-09T13:31:17;118.33;;;110.53;;
35376;SDS011;21480;51.642;4.834;2022-07-09T13:33:46;115.80;;;108.27;;
35376;SDS011;21480;51.642;4.834;2022-07-09T13:36:11;119.33;;;111.63;;
35376;SDS011;21480;51.642;4.834;2022-07-09T13:38:37;116.93;;;109.17;;
35376;SDS011;21480;51.642;4.834;2022-07-09T13:41:03;116.67;;;109.17;;
35376;SDS011;21480;51.642;4.834;2022-07-09T13:43:29;117.43;;;109.50;;
35376;SDS011;21480;51.642;4.834;2022-07-09T13:45:55;117.40;;;109.57;;
35376;SDS011;21480;51.642;4.834;2022-07-09T13:48:25;118.80;;;110.90;;
35376;SDS011;21480;51.642;4.834;2022-07-09T13:50:51;117.33;;;109.17;;
35376;SDS011;21480;51.642;4.834;2022-07-09T13:53:17;120.20;;;112.27;;
35376;SDS011;21480;51.642;4.834;2022-07-09T13:55:43;116.03;;;108.53;;
35376;SDS011;21480;51.642;4.834;2022-07-09T13:58:12;117.40;;;109.73;;
35376;SDS011;21480;51.642;4.834;2022-07-09T14:00:38;117.70;;;109.70;;
35376;SDS011;21480;51.642;4.834;2022-07-09T14:03:04;117.47;;;109.70;;
35376;SDS011;21480;51.642;4.834;2022-07-09T14:05:30;118.67;;;110.53;;
35376;SDS011;21480;51.642;4.834;2022-07-09T14:07:57;116.95;;;109.35;;
35376;SDS011;21480;51.642;4.834;2022-07-09T14:10:24;117.72;;;110.03;;